sensor_id;sensor_type;location;lat;lon;timestamp;P1;durP1;ratioP1;P2;durP2;ratioP2
3149;SDS011;32503;47.748;8.960;2023-12-14T00:02:21;1.30;;;1.20;;
3149;SDS011;32503;47.748;8.960;2023-12-14T00:04:48;1.67;;;0.97;;
3149;SDS011;32503;47.748;8.960;2023-12-14T00:07:15;1.70;;;1.60;;
3149;SDS011;32503;47.748;8.960;2023-12-14T00:09:42;1.33;;;1.23;;
3149;SDS011;32503;47.748;8.960;2023-12-14T00:12:09;1.00;;;0.90;;
3149;SDS011;32503;47.748;8.960;2023-12-14T00:14:36;0.93;;;0.80;;
3149;SDS011;32503;47.748;8.960;2023-12-14T00:17:04;0.70;;;0.70;;
3149;SDS011;32503;47.748;8.960;2023-12-14T00:19:31;0.80;;;0.73;;
3149;SDS011;32503;47.748;8.960;2023-12-14T00:22:01;1.47;;;0.70;;
3149;SDS011;32503;47.748;8.960;2023-12-14T00:24:28;0.80;;;0.70;;
3149;SDS011;32503;47.748;8.960;2023-12-14T00:27:00;1.67;;;0.90;;
3149;SDS011;32503;47.748;8.960;2023-12-14T00:29:27;0.80;;;0.73;;
3149;SDS011;32503;47.748;8.960;2023-12-14T00:31:54;0.80;;;0.70;;
3149;SDS011;32503;47.748;8.960;2023-12-14T00:34:22;1.60;;;0.60;;
3149;SDS011;32503;47.748;8.960;2023-12-14T00:36:49;0.60;;;0.60;;
3149;SDS011;32503;47.748;8.960;2023-12-14T00:39:19;0.80;;;0.70;;
3149;SDS011;32503;47.748;8.960;2023-12-14T00:41:46;0.70;;;0.60;;
3149;SDS011;32503;47.748;8.960;2023-12-14T00:44:13;0.80;;;0.80;;
3149;SDS011;32503;47.748;8.960;2023-12-14T00:46:40;0.63;;;0.63;;
3149;SDS011;32503;47.748;8.960;2023-12-14T00:49:07;0.90;;;0.70;;
3149;SDS011;32503;47.748;8.960;2023-12-14T00:51:36;0.90;;;0.80;;
3149;SDS011;32503;47.748;8.960;2023-12-14T00:54:05;0.90;;;0.70;;
3149;SDS011;32503;47.748;8.960;2023-12-14T00:56:32;1.10;;;0.80;;
3149;SDS011;32503;47.748;8.960;2023-12-14T00:58:59;0.83;;;0.80;;
3149;SDS011;32503;47.748;8.960;2023-12-14T01:01:26;0.77;;;0.63;;
3149;SDS011;32503;47.748;8.960;2023-12-14T01:03:53;0.93;;;0.83;;
3149;SDS011;32503;47.748;8.960;2023-12-14T01:06:20;1.10;;;0.70;;
3149;SDS011;32503;47.748;8.960;2023-12-14T01:08:48;0.70;;;0.60;;
3149;SDS011;32503;47.748;8.960;2023-12-14T01:11:15;0.80;;;0.80;;
3149;SDS011;32503;47.748;8.960;2023-12-14T01:13:42;0.60;;;0.57;;
3149;SDS011;32503;47.748;8.960;2023-12-14T01:16:09;2.87;;;0.70;;
3149;SDS011;32503;47.748;8.960;2023-12-14T01:18:36;0.70;;;0.60;;
3149;SDS011;32503;47.748;8.960;2023-12-14T01:21:03;0.70;;;0.70;;
3149;SDS011;32503;47.748;8.960;2023-12-14T01:23:30;1.70;;;1.60;;
3149;SDS011;32503;47.748;8.960;2023-12-14T01:25:59;1.30;;;1.20;;
3149;SDS011;32503;47.748;8.960;2023-12-14T01:28:26;0.80;;;0.80;;
3149;SDS011;32503;47.748;8.960;2023-12-14T01:30:53;0.80;;;0.80;;
3149;SDS011;32503;47.748;8.960;2023-12-14T01:33:22;1.30;;;1.20;;
3149;SDS011;32503;47.748;8.960;2023-12-14T01:35:49;0.80;;;0.80;;
3149;SDS011;32503;47.748;8.960;2023-12-14T01:38:16;1.13;;;1.03;;
3149;SDS011;32503;47.748;8.960;2023-12-14T01:40:44;0.90;;;0.77;;
3149;SDS011;32503;47.748;8.960;2023-12-14T01:43:13;1.27;;;1.20;;
3149;SDS011;32503;47.748;8.960;2023-12-14T01:45:40;0.73;;;0.73;;
3149;SDS011;32503;47.748;8.960;2023-12-14T01:48:07;0.80;;;0.73;;
3149;SDS011;32503;47.748;8.960;2023-12-14T01:50:34;1.20;;;1.10;;
3149;SDS011;32503;47.748;8.960;2023-12-14T01:53:01;0.77;;;0.73;;
3149;SDS011;32503;47.748;8.960;2023-12-14T01:55:28;0.80;;;0.80;;
3149;SDS011;32503;47.748;8.960;2023-12-14T01:57:55;0.60;;;0.60;;
3149;SDS011;32503;47.748;8.960;2023-12-14T02:00:26;1.00;;;0.80;;
3149;SDS011;32503;47.748;8.960;2023-12-14T02:02:57;0.93;;;0.90;;
3149;SDS011;32503;47.748;8.960;2023-12-14T02:05:24;0.80;;;0.80;;
3149;SDS011;32503;47.748;8.960;2023-12-14T02:07:51;1.17;;;1.07;;
3149;SDS011;32503;47.748;8.960;2023-12-14T02:10:18;1.27;;;1.00;;
3149;SDS011;32503;47.748;8.960;2023-12-14T02:12:45;1.43;;;1.33;;
3149;SDS011;32503;47.748;8.960;2023-12-14T02:15:12;6.47;;;3.60;;
3149;SDS011;32503;47.748;8.960;2023-12-14T02:17:41;11.60;;;5.93;;
3149;SDS011;32503;47.748;8.960;2023-12-14T02:20:08;7.40;;;4.97;;
3149;SDS011;32503;47.748;8.960;2023-12-14T02:22:49;4.60;;;3.60;;
3149;SDS011;32503;47.748;8.960;2023-12-14T02:25:16;19.63;;;7.97;;
3149;SDS011;32503;47.748;8.960;2023-12-14T02:27:44;11.57;;;6.70;;
3149;SDS011;32503;47.748;8.960;2023-12-14T02:30:12;14.33;;;7.27;;
3149;SDS011;32503;47.748;8.960;2023-12-14T02:32:40;17.67;;;7.70;;
3149;SDS011;32503;47.748;8.960;2023-12-14T02:35:07;13.20;;;6.60;;
3149;SDS011;32503;47.748;8.960;2023-12-14T02:37:35;5.23;;;4.00;;
3149;SDS011;32503;47.748;8.960;2023-12-14T02:40:07;4.30;;;3.43;;
3149;SDS011;32503;47.748;8.960;2023-12-14T02:42:35;2.10;;;1.90;;
3149;SDS011;32503;47.748;8.960;2023-12-14T02:45:02;1.40;;;1.30;;
3149;SDS011;32503;47.748;8.960;2023-12-14T02:47:30;1.53;;;1.43;;
3149;SDS011;32503;47.748;8.960;2023-12-14T02:49:57;1.87;;;1.57;;
3149;SDS011;32503;47.748;8.960;2023-12-14T02:52:24;1.27;;;1.17;;
3149;SDS011;32503;47.748;8.960;2023-12-14T02:54:51;3.57;;;2.07;;
3149;SDS011;32503;47.748;8.960;2023-12-14T02:57:20;1.00;;;0.90;;
3149;SDS011;32503;47.748;8.960;2023-12-14T02:59:47;1.30;;;1.20;;
3149;SDS011;32503;47.748;8.960;2023-12-14T03:02:14;1.43;;;1.33;;
3149;SDS011;32503;47.748;8.960;2023-12-14T03:04:41;1.73;;;1.30;;
3149;SDS011;32503;47.748;8.960;2023-12-14T03:07:08;1.23;;;1.13;;
3149;SDS011;32503;47.748;8.960;2023-12-14T03:09:35;4.80;;;1.13;;
3149;SDS011;32503;47.748;8.960;2023-12-14T03:12:08;1.50;;;1.40;;
3149;SDS011;32503;47.748;8.960;2023-12-14T03:14:36;1.33;;;1.10;;
3149;SDS011;32503;47.748;8.960;2023-12-14T03:17:05;0.80;;;0.80;;
3149;SDS011;32503;47.748;8.960;2023-12-14T03:19:37;1.20;;;1.10;;
3149;SDS011;32503;47.748;8.960;2023-12-14T03:22:06;1.40;;;1.20;;
3149;SDS011;32503;47.748;8.960;2023-12-14T03:24:35;0.93;;;0.90;;
3149;SDS011;32503;47.748;8.960;2023-12-14T03:27:02;1.00;;;1.00;;
3149;SDS011;32503;47.748;8.960;2023-12-14T03:29:30;0.87;;;0.87;;
3149;SDS011;32503;47.748;8.960;2023-12-14T03:31:59;0.97;;;0.90;;
3149;SDS011;32503;47.748;8.960;2023-12-14T03:34:26;1.53;;;1.10;;
3149;SDS011;32503;47.748;8.960;2023-12-14T03:36:55;1.30;;;0.77;;
3149;SDS011;32503;47.748;8.960;2023-12-14T03:39:24;0.97;;;0.90;;
3149;SDS011;32503;47.748;8.960;2023-12-14T03:41:51;0.90;;;0.90;;
3149;SDS011;32503;47.748;8.960;2023-12-14T03:44:18;0.93;;;0.93;;
3149;SDS011;32503;47.748;8.960;2023-12-14T03:46:45;1.07;;;0.97;;
3149;SDS011;32503;47.748;8.960;2023-12-14T03:49:14;1.10;;;1.00;;
3149;SDS011;32503;47.748;8.960;2023-12-14T03:51:41;1.50;;;1.10;;
3149;SDS011;32503;47.748;8.960;2023-12-14T03:54:08;2.07;;;1.70;;
3149;SDS011;32503;47.748;8.960;2023-12-14T03:56:35;3.27;;;2.97;;
3149;SDS011;32503;47.748;8.960;2023-12-14T03:59:02;3.13;;;2.00;;
3149;SDS011;32503;47.748;8.960;2023-12-14T04:01:29;1.00;;;1.00;;
3149;SDS011;32503;47.748;8.960;2023-12-14T04:03:56;1.10;;;1.00;;
3149;SDS011;32503;47.748;8.960;2023-12-14T04:06:25;1.03;;;1.03;;
3149;SDS011;32503;47.748;8.960;2023-12-14T04:08:51;1.33;;;1.23;;
3149;SDS011;32503;47.748;8.960;2023-12-14T04:11:19;0.70;;;0.70;;
3149;SDS011;32503;47.748;8.960;2023-12-14T04:13:46;0.90;;;0.90;;
3149;SDS011;32503;47.748;8.960;2023-12-14T04:16:15;1.40;;;0.90;;
3149;SDS011;32503;47.748;8.960;2023-12-14T04:18:45;1.00;;;1.00;;
3149;SDS011;32503;47.748;8.960;2023-12-14T04:21:12;1.00;;;1.00;;
3149;SDS011;32503;47.748;8.960;2023-12-14T04:23:40;1.47;;;1.37;;
3149;SDS011;32503;47.748;8.960;2023-12-14T04:26:07;1.20;;;1.10;;
3149;SDS011;32503;47.748;8.960;2023-12-14T04:28:34;0.80;;;0.80;;
3149;SDS011;32503;47.748;8.960;2023-12-14T04:31:01;1.00;;;0.90;;
3149;SDS011;32503;47.748;8.960;2023-12-14T04:33:29;1.00;;;0.90;;
3149;SDS011;32503;47.748;8.960;2023-12-14T04:35:57;1.27;;;1.17;;
3149;SDS011;32503;47.748;8.960;2023-12-14T04:38:24;1.17;;;1.07;;
3149;SDS011;32503;47.748;8.960;2023-12-14T04:40:52;1.30;;;1.20;;
3149;SDS011;32503;47.748;8.960;2023-12-14T04:43:19;1.43;;;1.33;;
3149;SDS011;32503;47.748;8.960;2023-12-14T04:45:46;1.27;;;1.17;;
3149;SDS011;32503;47.748;8.960;2023-12-14T04:48:13;1.40;;;1.30;;
3149;SDS011;32503;47.748;8.960;2023-12-14T04:50:40;1.67;;;1.57;;
3149;SDS011;32503;47.748;8.960;2023-12-14T04:53:07;0.93;;;0.93;;
3149;SDS011;32503;47.748;8.960;2023-12-14T04:55:34;1.50;;;0.90;;
3149;SDS011;32503;47.748;8.960;2023-12-14T04:58:02;1.20;;;1.10;;
3149;SDS011;32503;47.748;8.960;2023-12-14T05:00:29;1.10;;;1.00;;
3149;SDS011;32503;47.748;8.960;2023-12-14T05:02:56;1.60;;;1.50;;
3149;SDS011;32503;47.748;8.960;2023-12-14T05:05:23;1.30;;;1.20;;
3149;SDS011;32503;47.748;8.960;2023-12-14T05:07:50;1.00;;;0.97;;
3149;SDS011;32503;47.748;8.960;2023-12-14T05:10:17;1.10;;;1.00;;
3149;SDS011;32503;47.748;8.960;2023-12-14T05:12:44;1.13;;;1.03;;
3149;SDS011;32503;47.748;8.960;2023-12-14T05:15:13;1.37;;;1.27;;
3149;SDS011;32503;47.748;8.960;2023-12-14T05:17:40;1.13;;;1.03;;
3149;SDS011;32503;47.748;8.960;2023-12-14T05:20:07;3.37;;;1.33;;
3149;SDS011;32503;47.748;8.960;2023-12-14T05:22:36;1.50;;;1.40;;
3149;SDS011;32503;47.748;8.960;2023-12-14T05:25:03;1.10;;;1.00;;
3149;SDS011;32503;47.748;8.960;2023-12-14T05:27:30;1.50;;;1.40;;
3149;SDS011;32503;47.748;8.960;2023-12-14T05:29:57;1.43;;;1.33;;
3149;SDS011;32503;47.748;8.960;2023-12-14T05:32:26;1.40;;;1.30;;
3149;SDS011;32503;47.748;8.960;2023-12-14T05:34:53;1.30;;;1.20;;
3149;SDS011;32503;47.748;8.960;2023-12-14T05:37:20;1.60;;;1.40;;
3149;SDS011;32503;47.748;8.960;2023-12-14T05:39:47;1.53;;;1.43;;
3149;SDS011;32503;47.748;8.960;2023-12-14T05:42:15;1.50;;;1.40;;
3149;SDS011;32503;47.748;8.960;2023-12-14T05:44:44;1.60;;;1.50;;
3149;SDS011;32503;47.748;8.960;2023-12-14T05:47:12;1.73;;;1.63;;
3149;SDS011;32503;47.748;8.960;2023-12-14T05:49:41;1.83;;;1.73;;
3149;SDS011;32503;47.748;8.960;2023-12-14T05:52:09;1.60;;;1.50;;
3149;SDS011;32503;47.748;8.960;2023-12-14T05:54:36;1.67;;;1.57;;
3149;SDS011;32503;47.748;8.960;2023-12-14T05:57:04;1.90;;;1.80;;
3149;SDS011;32503;47.748;8.960;2023-12-14T05:59:32;1.77;;;1.67;;
3149;SDS011;32503;47.748;8.960;2023-12-14T06:01:59;1.87;;;1.77;;
3149;SDS011;32503;47.748;8.960;2023-12-14T06:04:27;1.60;;;1.50;;
3149;SDS011;32503;47.748;8.960;2023-12-14T06:06:58;2.20;;;2.10;;
3149;SDS011;32503;47.748;8.960;2023-12-14T06:09:25;3.60;;;2.37;;
3149;SDS011;32503;47.748;8.960;2023-12-14T06:11:58;2.37;;;2.27;;
3149;SDS011;32503;47.748;8.960;2023-12-14T06:14:26;3.17;;;2.97;;
3149;SDS011;32503;47.748;8.960;2023-12-14T06:16:53;5.60;;;5.17;;
3149;SDS011;32503;47.748;8.960;2023-12-14T06:19:20;3.90;;;3.70;;
3149;SDS011;32503;47.748;8.960;2023-12-14T06:21:47;4.57;;;4.27;;
3149;SDS011;32503;47.748;8.960;2023-12-14T06:24:16;5.97;;;5.40;;
3149;SDS011;32503;47.748;8.960;2023-12-14T06:26:43;5.93;;;4.20;;
3149;SDS011;32503;47.748;8.960;2023-12-14T06:29:11;3.30;;;3.20;;
3149;SDS011;32503;47.748;8.960;2023-12-14T06:31:38;3.57;;;3.37;;
3149;SDS011;32503;47.748;8.960;2023-12-14T06:34:07;6.13;;;5.30;;
3149;SDS011;32503;47.748;8.960;2023-12-14T06:36:34;4.90;;;4.50;;
3149;SDS011;32503;47.748;8.960;2023-12-14T06:39:01;3.33;;;3.10;;
3149;SDS011;32503;47.748;8.960;2023-12-14T06:41:30;11.13;;;9.73;;
3149;SDS011;32503;47.748;8.960;2023-12-14T06:43:57;9.40;;;8.40;;
3149;SDS011;32503;47.748;8.960;2023-12-14T06:46:24;6.47;;;5.77;;
3149;SDS011;32503;47.748;8.960;2023-12-14T06:48:51;3.10;;;2.90;;
3149;SDS011;32503;47.748;8.960;2023-12-14T06:51:18;4.57;;;4.17;;
3149;SDS011;32503;47.748;8.960;2023-12-14T06:53:45;3.50;;;3.30;;
3149;SDS011;32503;47.748;8.960;2023-12-14T06:56:12;3.10;;;2.80;;
3149;SDS011;32503;47.748;8.960;2023-12-14T06:58:42;5.53;;;3.90;;
3149;SDS011;32503;47.748;8.960;2023-12-14T07:01:11;3.73;;;3.53;;
3149;SDS011;32503;47.748;8.960;2023-12-14T07:03:39;3.70;;;3.50;;
3149;SDS011;32503;47.748;8.960;2023-12-14T07:06:07;4.80;;;4.40;;
3149;SDS011;32503;47.748;8.960;2023-12-14T07:08:38;3.80;;;3.60;;
3149;SDS011;32503;47.748;8.960;2023-12-14T07:11:07;3.33;;;3.03;;
3149;SDS011;32503;47.748;8.960;2023-12-14T07:13:34;2.83;;;2.63;;
3149;SDS011;32503;47.748;8.960;2023-12-14T07:16:04;3.90;;;3.67;;
3149;SDS011;32503;47.748;8.960;2023-12-14T07:18:33;3.10;;;3.00;;
3149;SDS011;32503;47.748;8.960;2023-12-14T07:21:01;3.50;;;3.40;;
3149;SDS011;32503;47.748;8.960;2023-12-14T07:23:28;3.40;;;3.20;;
3149;SDS011;32503;47.748;8.960;2023-12-14T07:25:55;3.40;;;3.30;;
3149;SDS011;32503;47.748;8.960;2023-12-14T07:28:22;4.27;;;3.97;;
3149;SDS011;32503;47.748;8.960;2023-12-14T07:30:49;4.27;;;3.97;;
3149;SDS011;32503;47.748;8.960;2023-12-14T07:33:18;4.50;;;4.30;;
3149;SDS011;32503;47.748;8.960;2023-12-14T07:35:45;5.03;;;3.90;;
3149;SDS011;32503;47.748;8.960;2023-12-14T07:38:12;3.73;;;3.53;;
3149;SDS011;32503;47.748;8.960;2023-12-14T07:40:40;3.37;;;3.17;;
3149;SDS011;32503;47.748;8.960;2023-12-14T07:43:07;3.63;;;3.20;;
3149;SDS011;32503;47.748;8.960;2023-12-14T07:45:36;3.60;;;3.30;;
3149;SDS011;32503;47.748;8.960;2023-12-14T07:48:03;3.53;;;3.33;;
3149;SDS011;32503;47.748;8.960;2023-12-14T07:50:32;4.10;;;3.80;;
3149;SDS011;32503;47.748;8.960;2023-12-14T07:52:59;3.60;;;3.40;;
3149;SDS011;32503;47.748;8.960;2023-12-14T07:55:26;3.50;;;3.30;;
3149;SDS011;32503;47.748;8.960;2023-12-14T07:57:54;3.40;;;3.20;;
3149;SDS011;32503;47.748;8.960;2023-12-14T08:00:21;3.27;;;3.17;;
3149;SDS011;32503;47.748;8.960;2023-12-14T08:02:48;3.33;;;3.13;;
3149;SDS011;32503;47.748;8.960;2023-12-14T08:05:15;3.17;;;2.93;;
3149;SDS011;32503;47.748;8.960;2023-12-14T08:07:45;3.93;;;3.73;;
3149;SDS011;32503;47.748;8.960;2023-12-14T08:10:13;3.80;;;3.30;;
3149;SDS011;32503;47.748;8.960;2023-12-14T08:12:40;4.37;;;4.10;;
3149;SDS011;32503;47.748;8.960;2023-12-14T08:15:07;3.00;;;2.80;;
3149;SDS011;32503;47.748;8.960;2023-12-14T08:17:36;4.10;;;3.80;;
3149;SDS011;32503;47.748;8.960;2023-12-14T08:20:03;3.13;;;2.83;;
3149;SDS011;32503;47.748;8.960;2023-12-14T08:22:33;2.97;;;2.77;;
3149;SDS011;32503;47.748;8.960;2023-12-14T08:25:02;2.67;;;2.50;;
3149;SDS011;32503;47.748;8.960;2023-12-14T08:27:32;6.53;;;2.80;;
3149;SDS011;32503;47.748;8.960;2023-12-14T08:29:59;3.20;;;3.00;;
3149;SDS011;32503;47.748;8.960;2023-12-14T08:32:26;4.13;;;3.80;;
3149;SDS011;32503;47.748;8.960;2023-12-14T08:34:53;3.93;;;3.63;;
3149;SDS011;32503;47.748;8.960;2023-12-14T08:37:20;3.27;;;3.17;;
3149;SDS011;32503;47.748;8.960;2023-12-14T08:39:47;3.13;;;2.93;;
3149;SDS011;32503;47.748;8.960;2023-12-14T08:42:16;2.73;;;2.53;;
3149;SDS011;32503;47.748;8.960;2023-12-14T08:44:43;2.80;;;2.60;;
3149;SDS011;32503;47.748;8.960;2023-12-14T08:47:10;3.00;;;2.80;;
3149;SDS011;32503;47.748;8.960;2023-12-14T08:49:39;3.10;;;2.90;;
3149;SDS011;32503;47.748;8.960;2023-12-14T08:52:06;2.80;;;2.70;;
3149;SDS011;32503;47.748;8.960;2023-12-14T08:54:35;2.63;;;2.43;;
3149;SDS011;32503;47.748;8.960;2023-12-14T08:57:02;3.10;;;2.90;;
3149;SDS011;32503;47.748;8.960;2023-12-14T08:59:31;5.50;;;3.40;;
3149;SDS011;32503;47.748;8.960;2023-12-14T09:01:58;3.77;;;3.47;;
3149;SDS011;32503;47.748;8.960;2023-12-14T09:04:25;3.60;;;3.30;;
3149;SDS011;32503;47.748;8.960;2023-12-14T09:06:52;2.97;;;2.77;;
3149;SDS011;32503;47.748;8.960;2023-12-14T09:09:19;3.40;;;3.20;;
3149;SDS011;32503;47.748;8.960;2023-12-14T09:11:46;4.60;;;4.20;;
3149;SDS011;32503;47.748;8.960;2023-12-14T09:14:14;3.33;;;3.13;;
3149;SDS011;32503;47.748;8.960;2023-12-14T09:16:42;3.50;;;3.30;;
3149;SDS011;32503;47.748;8.960;2023-12-14T09:19:09;2.97;;;2.77;;
3149;SDS011;32503;47.748;8.960;2023-12-14T09:21:37;3.60;;;3.37;;
3149;SDS011;32503;47.748;8.960;2023-12-14T09:24:04;3.63;;;3.40;;
3149;SDS011;32503;47.748;8.960;2023-12-14T09:26:33;3.43;;;3.17;;
3149;SDS011;32503;47.748;8.960;2023-12-14T09:29:00;4.57;;;4.30;;
3149;SDS011;32503;47.748;8.960;2023-12-14T09:31:27;4.80;;;4.30;;
3149;SDS011;32503;47.748;8.960;2023-12-14T09:33:56;4.77;;;4.37;;
3149;SDS011;32503;47.748;8.960;2023-12-14T09:36:25;3.23;;;3.00;;
3149;SDS011;32503;47.748;8.960;2023-12-14T09:38:52;3.37;;;3.00;;
3149;SDS011;32503;47.748;8.960;2023-12-14T09:41:19;2.87;;;2.67;;
3149;SDS011;32503;47.748;8.960;2023-12-14T09:43:48;2.80;;;2.70;;
3149;SDS011;32503;47.748;8.960;2023-12-14T09:46:15;2.87;;;2.63;;
3149;SDS011;32503;47.748;8.960;2023-12-14T09:48:45;2.83;;;2.13;;
3149;SDS011;32503;47.748;8.960;2023-12-14T09:51:17;3.10;;;2.90;;
3149;SDS011;32503;47.748;8.960;2023-12-14T09:53:44;3.23;;;3.03;;
3149;SDS011;32503;47.748;8.960;2023-12-14T09:56:11;3.23;;;3.03;;
3149;SDS011;32503;47.748;8.960;2023-12-14T09:58:40;3.30;;;3.10;;
3149;SDS011;32503;47.748;8.960;2023-12-14T10:01:20;3.70;;;3.37;;
3149;SDS011;32503;47.748;8.960;2023-12-14T10:03:49;3.30;;;3.00;;
3149;SDS011;32503;47.748;8.960;2023-12-14T10:06:18;3.07;;;2.87;;
3149;SDS011;32503;47.748;8.960;2023-12-14T10:08:53;2.40;;;2.30;;
3149;SDS011;32503;47.748;8.960;2023-12-14T10:11:22;3.50;;;3.30;;
3149;SDS011;32503;47.748;8.960;2023-12-14T10:13:49;2.23;;;2.13;;
3149;SDS011;32503;47.748;8.960;2023-12-14T10:16:26;2.00;;;1.90;;
3149;SDS011;32503;47.748;8.960;2023-12-14T10:18:55;3.33;;;3.13;;
3149;SDS011;32503;47.748;8.960;2023-12-14T10:21:25;3.30;;;3.10;;
3149;SDS011;32503;47.748;8.960;2023-12-14T10:23:54;8.03;;;2.73;;
3149;SDS011;32503;47.748;8.960;2023-12-14T10:26:22;2.73;;;2.60;;
3149;SDS011;32503;47.748;8.960;2023-12-14T10:28:50;2.53;;;2.43;;
3149;SDS011;32503;47.748;8.960;2023-12-14T10:31:18;2.83;;;2.63;;
3149;SDS011;32503;47.748;8.960;2023-12-14T10:33:46;2.63;;;2.40;;
3149;SDS011;32503;47.748;8.960;2023-12-14T10:36:17;2.03;;;1.93;;
3149;SDS011;32503;47.748;8.960;2023-12-14T10:38:49;2.20;;;2.10;;
3149;SDS011;32503;47.748;8.960;2023-12-14T10:41:19;2.67;;;2.47;;
3149;SDS011;32503;47.748;8.960;2023-12-14T10:43:48;2.50;;;2.30;;
3149;SDS011;32503;47.748;8.960;2023-12-14T10:46:19;3.90;;;2.37;;
3149;SDS011;32503;47.748;8.960;2023-12-14T10:48:47;2.77;;;2.57;;
3149;SDS011;32503;47.748;8.960;2023-12-14T10:51:15;1.87;;;1.77;;
3149;SDS011;32503;47.748;8.960;2023-12-14T10:53:46;2.33;;;2.23;;
3149;SDS011;32503;47.748;8.960;2023-12-14T10:56:17;2.20;;;2.00;;
3149;SDS011;32503;47.748;8.960;2023-12-14T10:58:45;1.80;;;1.70;;
3149;SDS011;32503;47.748;8.960;2023-12-14T11:01:13;1.80;;;1.70;;
3149;SDS011;32503;47.748;8.960;2023-12-14T11:03:42;2.00;;;1.90;;
3149;SDS011;32503;47.748;8.960;2023-12-14T11:09:05;2.20;;;2.10;;
3149;SDS011;32503;47.748;8.960;2023-12-14T11:11:39;2.07;;;1.97;;
3149;SDS011;32503;47.748;8.960;2023-12-14T11:14:10;2.17;;;2.07;;
3149;SDS011;32503;47.748;8.960;2023-12-14T11:16:40;2.20;;;2.00;;
3149;SDS011;32503;47.748;8.960;2023-12-14T11:19:24;2.20;;;1.40;;
3149;SDS011;32503;47.748;8.960;2023-12-14T11:24:53;2.37;;;2.27;;
3149;SDS011;32503;47.748;8.960;2023-12-14T11:27:28;2.07;;;1.97;;
3149;SDS011;32503;47.748;8.960;2023-12-14T11:29:56;2.20;;;2.10;;
3149;SDS011;32503;47.748;8.960;2023-12-14T11:32:24;1.70;;;1.60;;
3149;SDS011;32503;47.748;8.960;2023-12-14T11:34:52;1.40;;;1.30;;
3149;SDS011;32503;47.748;8.960;2023-12-14T11:37:22;1.70;;;1.50;;
3149;SDS011;32503;47.748;8.960;2023-12-14T11:39:49;2.00;;;1.90;;
3149;SDS011;32503;47.748;8.960;2023-12-14T11:42:19;1.67;;;1.57;;
3149;SDS011;32503;47.748;8.960;2023-12-14T11:44:47;1.70;;;1.60;;
3149;SDS011;32503;47.748;8.960;2023-12-14T11:47:14;1.33;;;1.23;;
3149;SDS011;32503;47.748;8.960;2023-12-14T11:49:41;1.60;;;1.50;;
3149;SDS011;32503;47.748;8.960;2023-12-14T11:52:08;1.40;;;1.30;;
3149;SDS011;32503;47.748;8.960;2023-12-14T11:54:36;1.13;;;1.03;;
3149;SDS011;32503;47.748;8.960;2023-12-14T11:57:04;1.23;;;1.13;;
3149;SDS011;32503;47.748;8.960;2023-12-14T11:59:35;1.47;;;1.37;;
3149;SDS011;32503;47.748;8.960;2023-12-14T12:02:03;1.80;;;1.70;;
3149;SDS011;32503;47.748;8.960;2023-12-14T12:04:30;1.67;;;1.57;;
3149;SDS011;32503;47.748;8.960;2023-12-14T12:07:01;2.07;;;1.97;;
3149;SDS011;32503;47.748;8.960;2023-12-14T12:09:36;2.17;;;2.07;;
3149;SDS011;32503;47.748;8.960;2023-12-14T12:12:06;1.40;;;1.30;;
3149;SDS011;32503;47.748;8.960;2023-12-14T12:14:37;2.30;;;2.03;;
3149;SDS011;32503;47.748;8.960;2023-12-14T12:17:05;1.97;;;1.87;;
3149;SDS011;32503;47.748;8.960;2023-12-14T12:19:32;2.40;;;2.30;;
3149;SDS011;32503;47.748;8.960;2023-12-14T12:22:00;1.97;;;1.87;;
3149;SDS011;32503;47.748;8.960;2023-12-14T12:24:28;1.60;;;1.50;;
3149;SDS011;32503;47.748;8.960;2023-12-14T12:26:56;1.50;;;1.40;;
3149;SDS011;32503;47.748;8.960;2023-12-14T12:29:26;1.30;;;1.20;;
3149;SDS011;32503;47.748;8.960;2023-12-14T12:31:54;1.70;;;1.60;;
3149;SDS011;32503;47.748;8.960;2023-12-14T12:34:21;1.40;;;1.30;;
3149;SDS011;32503;47.748;8.960;2023-12-14T12:36:48;1.27;;;1.17;;
3149;SDS011;32503;47.748;8.960;2023-12-14T12:39:15;1.47;;;1.37;;
3149;SDS011;32503;47.748;8.960;2023-12-14T12:41:42;1.80;;;1.70;;
3149;SDS011;32503;47.748;8.960;2023-12-14T12:44:11;2.30;;;2.10;;
3149;SDS011;32503;47.748;8.960;2023-12-14T12:46:38;1.63;;;1.53;;
3149;SDS011;32503;47.748;8.960;2023-12-14T12:49:07;1.80;;;1.70;;
3149;SDS011;32503;47.748;8.960;2023-12-14T12:51:36;1.67;;;1.57;;
3149;SDS011;32503;47.748;8.960;2023-12-14T12:54:03;1.47;;;1.37;;
3149;SDS011;32503;47.748;8.960;2023-12-14T12:56:30;1.33;;;1.23;;
3149;SDS011;32503;47.748;8.960;2023-12-14T12:58:57;1.60;;;1.50;;
3149;SDS011;32503;47.748;8.960;2023-12-14T13:01:24;1.60;;;1.50;;
3149;SDS011;32503;47.748;8.960;2023-12-14T13:03:52;1.07;;;1.07;;
3149;SDS011;32503;47.748;8.960;2023-12-14T13:06:24;1.60;;;1.50;;
3149;SDS011;32503;47.748;8.960;2023-12-14T13:08:51;1.40;;;1.30;;
3149;SDS011;32503;47.748;8.960;2023-12-14T13:11:18;1.20;;;1.10;;
3149;SDS011;32503;47.748;8.960;2023-12-14T13:13:45;1.93;;;1.70;;
3149;SDS011;32503;47.748;8.960;2023-12-14T13:16:12;1.90;;;1.80;;
3149;SDS011;32503;47.748;8.960;2023-12-14T13:18:42;1.70;;;1.60;;
3149;SDS011;32503;47.748;8.960;2023-12-14T13:21:13;1.30;;;1.20;;
3149;SDS011;32503;47.748;8.960;2023-12-14T13:23:41;1.30;;;1.20;;
3149;SDS011;32503;47.748;8.960;2023-12-14T13:26:09;1.60;;;1.50;;
3149;SDS011;32503;47.748;8.960;2023-12-14T13:28:36;1.20;;;1.10;;
3149;SDS011;32503;47.748;8.960;2023-12-14T13:31:06;1.80;;;1.70;;
3149;SDS011;32503;47.748;8.960;2023-12-14T13:33:33;1.53;;;1.43;;
3149;SDS011;32503;47.748;8.960;2023-12-14T13:36:00;1.20;;;1.10;;
3149;SDS011;32503;47.748;8.960;2023-12-14T13:38:28;1.60;;;1.50;;
3149;SDS011;32503;47.748;8.960;2023-12-14T13:40:57;1.93;;;1.83;;
3149;SDS011;32503;47.748;8.960;2023-12-14T13:43:24;1.90;;;1.80;;
3149;SDS011;32503;47.748;8.960;2023-12-14T13:45:52;1.80;;;1.70;;
3149;SDS011;32503;47.748;8.960;2023-12-14T13:48:22;1.87;;;1.73;;
3149;SDS011;32503;47.748;8.960;2023-12-14T13:50:49;2.03;;;1.67;;
3149;SDS011;32503;47.748;8.960;2023-12-14T13:53:16;1.30;;;1.20;;
3149;SDS011;32503;47.748;8.960;2023-12-14T13:55:44;1.90;;;1.80;;
3149;SDS011;32503;47.748;8.960;2023-12-14T13:58:12;2.13;;;1.77;;
3149;SDS011;32503;47.748;8.960;2023-12-14T14:00:39;1.80;;;1.70;;
3149;SDS011;32503;47.748;8.960;2023-12-14T14:03:06;1.50;;;1.40;;
3149;SDS011;32503;47.748;8.960;2023-12-14T14:05:33;1.47;;;1.37;;
3149;SDS011;32503;47.748;8.960;2023-12-14T14:08:01;1.27;;;1.00;;
3149;SDS011;32503;47.748;8.960;2023-12-14T14:10:28;1.00;;;1.00;;
3149;SDS011;32503;47.748;8.960;2023-12-14T14:12:55;0.90;;;0.90;;
3149;SDS011;32503;47.748;8.960;2023-12-14T14:15:24;0.80;;;0.80;;
3149;SDS011;32503;47.748;8.960;2023-12-14T14:17:55;1.67;;;1.20;;
3149;SDS011;32503;47.748;8.960;2023-12-14T14:20:22;1.57;;;1.47;;
3149;SDS011;32503;47.748;8.960;2023-12-14T14:22:49;1.10;;;1.00;;
3149;SDS011;32503;47.748;8.960;2023-12-14T14:25:16;1.83;;;1.73;;
3149;SDS011;32503;47.748;8.960;2023-12-14T14:27:44;1.37;;;1.27;;
3149;SDS011;32503;47.748;8.960;2023-12-14T14:30:13;2.00;;;1.80;;
3149;SDS011;32503;47.748;8.960;2023-12-14T14:32:42;1.30;;;1.20;;
3149;SDS011;32503;47.748;8.960;2023-12-14T14:35:10;1.50;;;1.30;;
3149;SDS011;32503;47.748;8.960;2023-12-14T14:37:37;3.10;;;1.20;;
3149;SDS011;32503;47.748;8.960;2023-12-14T14:40:05;1.30;;;1.20;;
3149;SDS011;32503;47.748;8.960;2023-12-14T14:42:34;0.93;;;0.93;;
3149;SDS011;32503;47.748;8.960;2023-12-14T14:45:01;2.03;;;1.20;;
3149;SDS011;32503;47.748;8.960;2023-12-14T14:47:29;1.57;;;1.13;;
3149;SDS011;32503;47.748;8.960;2023-12-14T14:49:57;1.13;;;1.03;;
3149;SDS011;32503;47.748;8.960;2023-12-14T14:52:28;1.20;;;1.10;;
3149;SDS011;32503;47.748;8.960;2023-12-14T14:54:56;1.10;;;1.00;;
3149;SDS011;32503;47.748;8.960;2023-12-14T14:57:23;1.27;;;1.17;;
3149;SDS011;32503;47.748;8.960;2023-12-14T14:59:50;0.90;;;0.80;;
3149;SDS011;32503;47.748;8.960;2023-12-14T15:02:17;0.97;;;0.87;;
3149;SDS011;32503;47.748;8.960;2023-12-14T15:04:45;1.43;;;1.33;;
3149;SDS011;32503;47.748;8.960;2023-12-14T15:07:16;1.30;;;1.20;;
3149;SDS011;32503;47.748;8.960;2023-12-14T15:09:43;1.87;;;1.77;;
3149;SDS011;32503;47.748;8.960;2023-12-14T15:12:10;1.40;;;1.30;;